sensor_id;sensor_type;location;lat;lon;timestamp;P1;durP1;ratioP1;P2;durP2;ratioP2
78555;SDS011;67851;51.354;7.744;2023-07-31T00:01:28;7.20;;;3.40;;
78555;SDS011;67851;51.354;7.744;2023-07-31T00:03:54;4.90;;;3.10;;
78555;SDS011;67851;51.354;7.744;2023-07-31T00:06:19;7.65;;;4.13;;
78555;SDS011;67851;51.354;7.744;2023-07-31T00:08:45;6.32;;;2.83;;
78555;SDS011;67851;51.354;7.744;2023-07-31T00:11:10;8.73;;;3.80;;
78555;SDS011;67851;51.354;7.744;2023-07-31T00:13:38;9.45;;;3.90;;
78555;SDS011;67851;51.354;7.744;2023-07-31T00:16:06;6.28;;;3.60;;
78555;SDS011;67851;51.354;7.744;2023-07-31T00:18:31;15.43;;;5.45;;
78555;SDS011;67851;51.354;7.744;2023-07-31T00:20:56;11.75;;;5.43;;
78555;SDS011;67851;51.354;7.744;2023-07-31T00:23:22;15.02;;;5.18;;
78555;SDS011;67851;51.354;7.744;2023-07-31T00:25:48;12.00;;;4.80;;
78555;SDS011;67851;51.354;7.744;2023-07-31T00:28:14;13.38;;;5.53;;
78555;SDS011;67851;51.354;7.744;2023-07-31T00:30:39;12.15;;;5.20;;
78555;SDS011;67851;51.354;7.744;2023-07-31T00:33:05;15.80;;;5.47;;
78555;SDS011;67851;51.354;7.744;2023-07-31T00:35:30;12.20;;;5.32;;
78555;SDS011;67851;51.354;7.744;2023-07-31T00:37:58;12.85;;;4.85;;
78555;SDS011;67851;51.354;7.744;2023-07-31T00:40:24;16.95;;;6.53;;
78555;SDS011;67851;51.354;7.744;2023-07-31T00:42:49;13.80;;;4.90;;
78555;SDS011;67851;51.354;7.744;2023-07-31T00:45:14;13.40;;;4.68;;
78555;SDS011;67851;51.354;7.744;2023-07-31T00:47:40;17.33;;;5.72;;
78555;SDS011;67851;51.354;7.744;2023-07-31T00:50:06;11.70;;;5.57;;
78555;SDS011;67851;51.354;7.744;2023-07-31T00:52:32;8.18;;;4.25;;
78555;SDS011;67851;51.354;7.744;2023-07-31T00:54:57;14.18;;;5.30;;
78555;SDS011;67851;51.354;7.744;2023-07-31T00:57:24;11.70;;;4.60;;
78555;SDS011;67851;51.354;7.744;2023-07-31T00:59:50;10.45;;;4.35;;
78555;SDS011;67851;51.354;7.744;2023-07-31T01:02:15;9.38;;;4.57;;
78555;SDS011;67851;51.354;7.744;2023-07-31T01:04:42;13.82;;;4.80;;
78555;SDS011;67851;51.354;7.744;2023-07-31T01:07:18;15.55;;;5.45;;
78555;SDS011;67851;51.354;7.744;2023-07-31T01:09:50;14.20;;;4.55;;
78555;SDS011;67851;51.354;7.744;2023-07-31T01:12:20;18.08;;;6.18;;
78555;SDS011;67851;51.354;7.744;2023-07-31T01:14:50;15.73;;;6.20;;
78555;SDS011;67851;51.354;7.744;2023-07-31T01:17:35;13.40;;;5.05;;
78555;SDS011;67851;51.354;7.744;2023-07-31T01:20:01;16.20;;;5.45;;
78555;SDS011;67851;51.354;7.744;2023-07-31T01:22:41;8.45;;;3.92;;
78555;SDS011;67851;51.354;7.744;2023-07-31T01:25:42;12.48;;;5.15;;
78555;SDS011;67851;51.354;7.744;2023-07-31T01:28:14;16.38;;;6.70;;
78555;SDS011;67851;51.354;7.744;2023-07-31T01:30:47;16.85;;;7.07;;
78555;SDS011;67851;51.354;7.744;2023-07-31T01:33:13;16.95;;;7.13;;
78555;SDS011;67851;51.354;7.744;2023-07-31T01:35:41;18.45;;;7.45;;
78555;SDS011;67851;51.354;7.744;2023-07-31T01:38:08;19.23;;;6.88;;
78555;SDS011;67851;51.354;7.744;2023-07-31T01:40:34;22.42;;;7.90;;
78555;SDS011;67851;51.354;7.744;2023-07-31T01:42:59;18.92;;;7.00;;
78555;SDS011;67851;51.354;7.744;2023-07-31T01:45:25;19.95;;;8.30;;
78555;SDS011;67851;51.354;7.744;2023-07-31T01:47:53;19.90;;;7.88;;
78555;SDS011;67851;51.354;7.744;2023-07-31T01:50:18;19.38;;;6.93;;
78555;SDS011;67851;51.354;7.744;2023-07-31T01:52:44;17.67;;;7.25;;
78555;SDS011;67851;51.354;7.744;2023-07-31T01:55:10;20.48;;;7.25;;
78555;SDS011;67851;51.354;7.744;2023-07-31T01:57:36;18.40;;;7.13;;
78555;SDS011;67851;51.354;7.744;2023-07-31T02:00:02;18.73;;;7.35;;
78555;SDS011;67851;51.354;7.744;2023-07-31T02:02:37;17.05;;;6.07;;
78555;SDS011;67851;51.354;7.744;2023-07-31T02:05:02;17.30;;;6.30;;
78555;SDS011;67851;51.354;7.744;2023-07-31T02:07:28;18.63;;;7.18;;
78555;SDS011;67851;51.354;7.744;2023-07-31T02:09:54;17.08;;;6.45;;
78555;SDS011;67851;51.354;7.744;2023-07-31T02:12:19;22.48;;;5.88;;
78555;SDS011;67851;51.354;7.744;2023-07-31T02:14:47;13.95;;;5.35;;
78555;SDS011;67851;51.354;7.744;2023-07-31T02:17:13;11.52;;;5.38;;
78555;SDS011;67851;51.354;7.744;2023-07-31T02:19:38;12.85;;;5.43;;
78555;SDS011;67851;51.354;7.744;2023-07-31T02:22:04;16.42;;;5.80;;
78555;SDS011;67851;51.354;7.744;2023-07-31T02:24:30;12.88;;;5.32;;
78555;SDS011;67851;51.354;7.744;2023-07-31T02:26:57;15.95;;;6.18;;
78555;SDS011;67851;51.354;7.744;2023-07-31T02:29:22;23.65;;;5.63;;
78555;SDS011;67851;51.354;7.744;2023-07-31T02:31:48;12.38;;;4.93;;
78555;SDS011;67851;51.354;7.744;2023-07-31T02:34:13;15.63;;;5.50;;
78555;SDS011;67851;51.354;7.744;2023-07-31T02:36:39;12.45;;;5.13;;
78555;SDS011;67851;51.354;7.744;2023-07-31T02:39:04;16.67;;;4.75;;
78555;SDS011;67851;51.354;7.744;2023-07-31T02:41:30;11.93;;;4.32;;
78555;SDS011;67851;51.354;7.744;2023-07-31T02:43:55;11.50;;;4.25;;
78555;SDS011;67851;51.354;7.744;2023-07-31T02:46:21;11.23;;;4.32;;
78555;SDS011;67851;51.354;7.744;2023-07-31T02:48:49;17.17;;;5.30;;
78555;SDS011;67851;51.354;7.744;2023-07-31T02:51:14;16.88;;;4.55;;
78555;SDS011;67851;51.354;7.744;2023-07-31T02:53:40;12.93;;;4.78;;
78555;SDS011;67851;51.354;7.744;2023-07-31T02:56:05;11.57;;;5.07;;
78555;SDS011;67851;51.354;7.744;2023-07-31T02:58:31;14.40;;;5.05;;
78555;SDS011;67851;51.354;7.744;2023-07-31T03:00:57;18.90;;;5.03;;
78555;SDS011;67851;51.354;7.744;2023-07-31T03:03:24;18.52;;;4.72;;
78555;SDS011;67851;51.354;7.744;2023-07-31T03:05:50;12.02;;;4.63;;
78555;SDS011;67851;51.354;7.744;2023-07-31T03:08:15;14.43;;;4.90;;
78555;SDS011;67851;51.354;7.744;2023-07-31T03:10:41;12.55;;;4.55;;
78555;SDS011;67851;51.354;7.744;2023-07-31T03:13:06;15.93;;;5.03;;
78555;SDS011;67851;51.354;7.744;2023-07-31T03:15:32;20.23;;;5.82;;
78555;SDS011;67851;51.354;7.744;2023-07-31T03:17:57;17.02;;;5.50;;
78555;SDS011;67851;51.354;7.744;2023-07-31T03:20:23;13.75;;;4.85;;
78555;SDS011;67851;51.354;7.744;2023-07-31T03:22:49;13.90;;;4.63;;
78555;SDS011;67851;51.354;7.744;2023-07-31T03:25:14;15.60;;;5.63;;
78555;SDS011;67851;51.354;7.744;2023-07-31T03:27:40;15.00;;;5.13;;
78555;SDS011;67851;51.354;7.744;2023-07-31T03:30:06;17.13;;;4.78;;
78555;SDS011;67851;51.354;7.744;2023-07-31T03:32:32;13.32;;;4.18;;
78555;SDS011;67851;51.354;7.744;2023-07-31T03:34:57;12.48;;;3.97;;
78555;SDS011;67851;51.354;7.744;2023-07-31T03:37:24;13.63;;;5.20;;
78555;SDS011;67851;51.354;7.744;2023-07-31T03:39:49;13.48;;;4.97;;
78555;SDS011;67851;51.354;7.744;2023-07-31T03:42:15;16.35;;;5.60;;
78555;SDS011;67851;51.354;7.744;2023-07-31T03:44:41;13.55;;;4.50;;
78555;SDS011;67851;51.354;7.744;2023-07-31T03:47:08;10.68;;;4.70;;
78555;SDS011;67851;51.354;7.744;2023-07-31T03:49:36;14.07;;;5.65;;
78555;SDS011;67851;51.354;7.744;2023-07-31T03:52:02;13.55;;;4.97;;
78555;SDS011;67851;51.354;7.744;2023-07-31T03:54:27;23.10;;;5.25;;
78555;SDS011;67851;51.354;7.744;2023-07-31T03:56:53;14.00;;;5.50;;
78555;SDS011;67851;51.354;7.744;2023-07-31T03:59:18;13.35;;;4.63;;
78555;SDS011;67851;51.354;7.744;2023-07-31T04:01:44;12.20;;;4.90;;
78555;SDS011;67851;51.354;7.744;2023-07-31T04:04:09;11.50;;;3.80;;
78555;SDS011;67851;51.354;7.744;2023-07-31T04:06:34;12.23;;;4.90;;
78555;SDS011;67851;51.354;7.744;2023-07-31T04:09:00;14.80;;;5.78;;
78555;SDS011;67851;51.354;7.744;2023-07-31T04:11:25;17.38;;;5.00;;
78555;SDS011;67851;51.354;7.744;2023-07-31T04:13:51;16.02;;;4.78;;
78555;SDS011;67851;51.354;7.744;2023-07-31T04:16:16;13.25;;;5.38;;
78555;SDS011;67851;51.354;7.744;2023-07-31T04:18:41;11.30;;;4.63;;
78555;SDS011;67851;51.354;7.744;2023-07-31T04:21:07;12.98;;;4.85;;
78555;SDS011;67851;51.354;7.744;2023-07-31T04:23:32;13.88;;;5.30;;
78555;SDS011;67851;51.354;7.744;2023-07-31T04:25:59;21.30;;;6.13;;
78555;SDS011;67851;51.354;7.744;2023-07-31T04:28:25;14.05;;;5.45;;
78555;SDS011;67851;51.354;7.744;2023-07-31T04:30:51;13.27;;;4.30;;
78555;SDS011;67851;51.354;7.744;2023-07-31T04:33:18;16.13;;;5.18;;
78555;SDS011;67851;51.354;7.744;2023-07-31T04:35:51;15.40;;;5.50;;
78555;SDS011;67851;51.354;7.744;2023-07-31T04:38:18;12.30;;;5.32;;
78555;SDS011;67851;51.354;7.744;2023-07-31T04:40:44;17.95;;;5.70;;
78555;SDS011;67851;51.354;7.744;2023-07-31T04:43:09;11.70;;;4.47;;
78555;SDS011;67851;51.354;7.744;2023-07-31T04:45:35;11.98;;;4.85;;
78555;SDS011;67851;51.354;7.744;2023-07-31T04:48:00;11.75;;;4.72;;
78555;SDS011;67851;51.354;7.744;2023-07-31T04:50:26;12.77;;;4.25;;
78555;SDS011;67851;51.354;7.744;2023-07-31T04:52:51;14.50;;;5.82;;
78555;SDS011;67851;51.354;7.744;2023-07-31T04:55:17;10.82;;;4.65;;
78555;SDS011;67851;51.354;7.744;2023-07-31T04:57:45;17.05;;;4.85;;
78555;SDS011;67851;51.354;7.744;2023-07-31T05:00:13;13.32;;;5.00;;
78555;SDS011;67851;51.354;7.744;2023-07-31T05:02:38;12.85;;;3.67;;
78555;SDS011;67851;51.354;7.744;2023-07-31T05:05:05;9.98;;;4.18;;
78555;SDS011;67851;51.354;7.744;2023-07-31T05:07:31;14.25;;;5.60;;
78555;SDS011;67851;51.354;7.744;2023-07-31T05:09:57;15.23;;;6.45;;
78555;SDS011;67851;51.354;7.744;2023-07-31T05:12:22;17.40;;;5.38;;
78555;SDS011;67851;51.354;7.744;2023-07-31T05:14:48;13.40;;;4.57;;
78555;SDS011;67851;51.354;7.744;2023-07-31T05:17:13;12.43;;;5.10;;
78555;SDS011;67851;51.354;7.744;2023-07-31T05:19:39;11.23;;;4.60;;
78555;SDS011;67851;51.354;7.744;2023-07-31T05:22:06;15.65;;;5.03;;
78555;SDS011;67851;51.354;7.744;2023-07-31T05:24:32;16.98;;;5.63;;
78555;SDS011;67851;51.354;7.744;2023-07-31T05:26:58;18.40;;;6.00;;
78555;SDS011;67851;51.354;7.744;2023-07-31T05:29:24;14.43;;;6.30;;
78555;SDS011;67851;51.354;7.744;2023-07-31T05:31:49;13.68;;;5.22;;
78555;SDS011;67851;51.354;7.744;2023-07-31T05:34:14;15.15;;;5.65;;
78555;SDS011;67851;51.354;7.744;2023-07-31T05:36:40;16.40;;;6.20;;
78555;SDS011;67851;51.354;7.744;2023-07-31T05:39:05;17.67;;;7.00;;
78555;SDS011;67851;51.354;7.744;2023-07-31T05:41:31;15.02;;;6.05;;
78555;SDS011;67851;51.354;7.744;2023-07-31T05:43:57;14.07;;;6.40;;
78555;SDS011;67851;51.354;7.744;2023-07-31T05:46:22;15.48;;;6.88;;
78555;SDS011;67851;51.354;7.744;2023-07-31T05:48:47;14.82;;;6.40;;
78555;SDS011;67851;51.354;7.744;2023-07-31T05:51:13;12.77;;;6.38;;
78555;SDS011;67851;51.354;7.744;2023-07-31T05:53:38;12.65;;;6.50;;
78555;SDS011;67851;51.354;7.744;2023-07-31T05:56:05;14.88;;;6.82;;
78555;SDS011;67851;51.354;7.744;2023-07-31T05:58:31;17.73;;;7.97;;
78555;SDS011;67851;51.354;7.744;2023-07-31T06:00:56;14.23;;;6.82;;
78555;SDS011;67851;51.354;7.744;2023-07-31T06:03:22;16.38;;;6.38;;
78555;SDS011;67851;51.354;7.744;2023-07-31T06:05:47;13.73;;;6.15;;
78555;SDS011;67851;51.354;7.744;2023-07-31T06:08:13;12.75;;;5.50;;
78555;SDS011;67851;51.354;7.744;2023-07-31T06:10:41;16.55;;;5.70;;
78555;SDS011;67851;51.354;7.744;2023-07-31T06:13:06;9.63;;;5.75;;
78555;SDS011;67851;51.354;7.744;2023-07-31T06:15:32;12.65;;;5.45;;
78555;SDS011;67851;51.354;7.744;2023-07-31T06:17:57;12.45;;;5.40;;
78555;SDS011;67851;51.354;7.744;2023-07-31T06:20:24;18.42;;;5.85;;
78555;SDS011;67851;51.354;7.744;2023-07-31T06:22:49;17.67;;;6.07;;
78555;SDS011;67851;51.354;7.744;2023-07-31T06:25:15;14.77;;;6.43;;
78555;SDS011;67851;51.354;7.744;2023-07-31T06:27:40;12.23;;;6.00;;
78555;SDS011;67851;51.354;7.744;2023-07-31T06:30:06;17.23;;;5.72;;
78555;SDS011;67851;51.354;7.744;2023-07-31T06:32:32;13.82;;;5.85;;
78555;SDS011;67851;51.354;7.744;2023-07-31T06:34:57;13.68;;;5.93;;
78555;SDS011;67851;51.354;7.744;2023-07-31T06:37:23;13.57;;;5.65;;
78555;SDS011;67851;51.354;7.744;2023-07-31T06:39:49;9.02;;;4.88;;
78555;SDS011;67851;51.354;7.744;2023-07-31T06:42:14;13.52;;;5.93;;
78555;SDS011;67851;51.354;7.744;2023-07-31T06:44:40;10.90;;;5.32;;
78555;SDS011;67851;51.354;7.744;2023-07-31T06:47:05;11.45;;;5.38;;
78555;SDS011;67851;51.354;7.744;2023-07-31T06:49:34;12.20;;;4.80;;
78555;SDS011;67851;51.354;7.744;2023-07-31T06:51:59;17.63;;;6.22;;
78555;SDS011;67851;51.354;7.744;2023-07-31T06:54:25;12.00;;;4.95;;
78555;SDS011;67851;51.354;7.744;2023-07-31T06:56:50;14.02;;;5.95;;
78555;SDS011;67851;51.354;7.744;2023-07-31T06:59:16;13.00;;;5.30;;
78555;SDS011;67851;51.354;7.744;2023-07-31T07:01:41;15.27;;;5.60;;
78555;SDS011;67851;51.354;7.744;2023-07-31T07:04:06;12.13;;;4.82;;
78555;SDS011;67851;51.354;7.744;2023-07-31T07:06:32;11.70;;;5.25;;
78555;SDS011;67851;51.354;7.744;2023-07-31T07:08:57;10.15;;;4.90;;
78555;SDS011;67851;51.354;7.744;2023-07-31T07:11:23;12.02;;;5.43;;
78555;SDS011;67851;51.354;7.744;2023-07-31T07:13:49;9.82;;;4.50;;
78555;SDS011;67851;51.354;7.744;2023-07-31T07:16:15;12.02;;;5.03;;
78555;SDS011;67851;51.354;7.744;2023-07-31T07:18:41;11.68;;;5.63;;
78555;SDS011;67851;51.354;7.744;2023-07-31T07:21:07;8.85;;;4.32;;
78555;SDS011;67851;51.354;7.744;2023-07-31T07:23:32;8.68;;;4.35;;
78555;SDS011;67851;51.354;7.744;2023-07-31T07:25:58;10.25;;;4.88;;
78555;SDS011;67851;51.354;7.744;2023-07-31T07:28:24;11.30;;;4.70;;
78555;SDS011;67851;51.354;7.744;2023-07-31T07:30:53;11.02;;;4.78;;
78555;SDS011;67851;51.354;7.744;2023-07-31T07:33:19;10.00;;;4.38;;
78555;SDS011;67851;51.354;7.744;2023-07-31T07:35:44;12.82;;;3.90;;
78555;SDS011;67851;51.354;7.744;2023-07-31T07:38:11;9.95;;;4.68;;
78555;SDS011;67851;51.354;7.744;2023-07-31T07:40:38;7.78;;;4.80;;
78555;SDS011;67851;51.354;7.744;2023-07-31T07:43:04;9.18;;;4.68;;
78555;SDS011;67851;51.354;7.744;2023-07-31T07:45:30;9.55;;;4.07;;
78555;SDS011;67851;51.354;7.744;2023-07-31T07:47:56;9.27;;;4.15;;
78555;SDS011;67851;51.354;7.744;2023-07-31T07:50:24;8.23;;;4.43;;
78555;SDS011;67851;51.354;7.744;2023-07-31T07:52:50;11.70;;;4.72;;
78555;SDS011;67851;51.354;7.744;2023-07-31T07:55:16;10.82;;;4.80;;
78555;SDS011;67851;51.354;7.744;2023-07-31T07:57:48;7.40;;;3.40;;
78555;SDS011;67851;51.354;7.744;2023-07-31T08:00:15;7.80;;;4.53;;
78555;SDS011;67851;51.354;7.744;2023-07-31T08:02:42;12.32;;;5.15;;
78555;SDS011;67851;51.354;7.744;2023-07-31T08:05:09;7.80;;;4.28;;
78555;SDS011;67851;51.354;7.744;2023-07-31T08:07:35;8.77;;;4.18;;
78555;SDS011;67851;51.354;7.744;2023-07-31T08:10:01;12.98;;;4.65;;
78555;SDS011;67851;51.354;7.744;2023-07-31T08:12:42;8.85;;;4.18;;
78555;SDS011;67851;51.354;7.744;2023-07-31T08:18:55;7.63;;;4.10;;
78555;SDS011;67851;51.354;7.744;2023-07-31T08:21:22;11.48;;;4.28;;
78555;SDS011;67851;51.354;7.744;2023-07-31T08:23:47;10.27;;;4.80;;
78555;SDS011;67851;51.354;7.744;2023-07-31T08:26:16;9.88;;;4.45;;
78555;SDS011;67851;51.354;7.744;2023-07-31T08:28:43;8.77;;;4.10;;
78555;SDS011;67851;51.354;7.744;2023-07-31T08:31:08;13.43;;;4.38;;
78555;SDS011;67851;51.354;7.744;2023-07-31T08:33:34;6.53;;;3.90;;
78555;SDS011;67851;51.354;7.744;2023-07-31T08:36:00;8.27;;;4.40;;
78555;SDS011;67851;51.354;7.744;2023-07-31T08:38:26;7.68;;;4.10;;
78555;SDS011;67851;51.354;7.744;2023-07-31T08:40:52;8.38;;;4.07;;
78555;SDS011;67851;51.354;7.744;2023-07-31T08:43:18;5.90;;;3.22;;
78555;SDS011;67851;51.354;7.744;2023-07-31T08:45:47;6.65;;;3.45;;
78555;SDS011;67851;51.354;7.744;2023-07-31T08:48:12;6.63;;;3.92;;
78555;SDS011;67851;51.354;7.744;2023-07-31T08:50:41;12.00;;;4.10;;
78555;SDS011;67851;51.354;7.744;2023-07-31T08:53:07;7.53;;;3.80;;
78555;SDS011;67851;51.354;7.744;2023-07-31T08:55:32;7.18;;;4.07;;
78555;SDS011;67851;51.354;7.744;2023-07-31T08:57:58;6.03;;;3.35;;
78555;SDS011;67851;51.354;7.744;2023-07-31T09:00:24;7.00;;;3.47;;
78555;SDS011;67851;51.354;7.744;2023-07-31T09:03:01;6.00;;;3.28;;
78555;SDS011;67851;51.354;7.744;2023-07-31T09:05:29;6.07;;;3.10;;
78555;SDS011;67851;51.354;7.744;2023-07-31T09:07:57;10.75;;;4.65;;
78555;SDS011;67851;51.354;7.744;2023-07-31T09:10:23;5.10;;;3.05;;
78555;SDS011;67851;51.354;7.744;2023-07-31T09:12:51;9.13;;;3.20;;
78555;SDS011;67851;51.354;7.744;2023-07-31T09:15:18;5.80;;;3.17;;
78555;SDS011;67851;51.354;7.744;2023-07-31T09:17:43;4.72;;;2.58;;
78555;SDS011;67851;51.354;7.744;2023-07-31T09:20:15;3.33;;;2.28;;
78555;SDS011;67851;51.354;7.744;2023-07-31T09:22:42;3.78;;;2.25;;
78555;SDS011;67851;51.354;7.744;2023-07-31T09:25:15;3.58;;;2.22;;
78555;SDS011;67851;51.354;7.744;2023-07-31T09:27:48;5.60;;;3.00;;
78555;SDS011;67851;51.354;7.744;2023-07-31T09:30:15;4.03;;;2.50;;
78555;SDS011;67851;51.354;7.744;2023-07-31T09:32:43;3.65;;;2.33;;
78555;SDS011;67851;51.354;7.744;2023-07-31T09:35:51;3.80;;;2.20;;
78555;SDS011;67851;51.354;7.744;2023-07-31T09:40:30;5.32;;;2.20;;
78555;SDS011;67851;51.354;7.744;2023-07-31T09:43:01;4.05;;;2.17;;
78555;SDS011;67851;51.354;7.744;2023-07-31T09:45:28;7.75;;;2.50;;
78555;SDS011;67851;51.354;7.744;2023-07-31T09:47:54;3.47;;;2.47;;
78555;SDS011;67851;51.354;7.744;2023-07-31T09:50:21;3.97;;;2.40;;
78555;SDS011;67851;51.354;7.744;2023-07-31T09:52:47;6.07;;;2.78;;
78555;SDS011;67851;51.354;7.744;2023-07-31T09:55:13;5.47;;;2.42;;
78555;SDS011;67851;51.354;7.744;2023-07-31T09:57:41;5.03;;;2.80;;
78555;SDS011;67851;51.354;7.744;2023-07-31T10:00:10;5.40;;;2.88;;
78555;SDS011;67851;51.354;7.744;2023-07-31T10:02:37;3.63;;;2.60;;
78555;SDS011;67851;51.354;7.744;2023-07-31T10:05:04;5.65;;;2.72;;
78555;SDS011;67851;51.354;7.744;2023-07-31T10:07:34;8.30;;;3.00;;
78555;SDS011;67851;51.354;7.744;2023-07-31T10:10:02;3.45;;;2.30;;
78555;SDS011;67851;51.354;7.744;2023-07-31T10:12:29;3.90;;;2.50;;
78555;SDS011;67851;51.354;7.744;2023-07-31T10:14:56;4.20;;;2.50;;
78555;SDS011;67851;51.354;7.744;2023-07-31T10:17:22;4.03;;;2.50;;
78555;SDS011;67851;51.354;7.744;2023-07-31T10:19:49;5.07;;;2.45;;
78555;SDS011;67851;51.354;7.744;2023-07-31T10:22:15;3.40;;;1.98;;
78555;SDS011;67851;51.354;7.744;2023-07-31T10:24:43;4.82;;;2.60;;
78555;SDS011;67851;51.354;7.744;2023-07-31T10:27:10;4.05;;;2.40;;
78555;SDS011;67851;51.354;7.744;2023-07-31T10:29:40;4.30;;;2.10;;
78555;SDS011;67851;51.354;7.744;2023-07-31T10:32:07;9.43;;;2.53;;
78555;SDS011;67851;51.354;7.744;2023-07-31T10:34:35;3.50;;;2.50;;
78555;SDS011;67851;51.354;7.744;2023-07-31T10:37:35;3.40;;;2.03;;
78555;SDS011;67851;51.354;7.744;2023-07-31T10:42:32;4.63;;;2.10;;
78555;SDS011;67851;51.354;7.744;2023-07-31T10:45:05;1.98;;;1.70;;
78555;SDS011;67851;51.354;7.744;2023-07-31T10:47:42;4.10;;;1.80;;
78555;SDS011;67851;51.354;7.744;2023-07-31T10:50:12;3.15;;;1.67;;
78555;SDS011;67851;51.354;7.744;2023-07-31T10:52:47;2.97;;;1.60;;
78555;SDS011;67851;51.354;7.744;2023-07-31T10:57:54;2.88;;;1.70;;
78555;SDS011;67851;51.354;7.744;2023-07-31T11:00:32;2.00;;;1.70;;
78555;SDS011;67851;51.354;7.744;2023-07-31T11:03:17;3.75;;;1.95;;
78555;SDS011;67851;51.354;7.744;2023-07-31T11:08:35;3.88;;;2.13;;
78555;SDS011;67851;51.354;7.744;2023-07-31T11:15:07;2.00;;;1.42;;
78555;SDS011;67851;51.354;7.744;2023-07-31T11:17:38;2.33;;;1.88;;
78555;SDS011;67851;51.354;7.744;2023-07-31T11:20:07;3.25;;;2.50;;
78555;SDS011;67851;51.354;7.744;2023-07-31T11:23:06;3.30;;;2.17;;
78555;SDS011;67851;51.354;7.744;2023-07-31T11:25:38;4.65;;;2.85;;
78555;SDS011;67851;51.354;7.744;2023-07-31T11:32:04;2.65;;;2.45;;
78555;SDS011;67851;51.354;7.744;2023-07-31T11:35:56;3.38;;;2.28;;
78555;SDS011;67851;51.354;7.744;2023-07-31T11:38:26;4.47;;;2.80;;
78555;SDS011;67851;51.354;7.744;2023-07-31T11:41:23;4.43;;;2.85;;
78555;SDS011;67851;51.354;7.744;2023-07-31T11:44:22;3.55;;;2.25;;
78555;SDS011;67851;51.354;7.744;2023-07-31T11:48:08;4.18;;;2.83;;
78555;SDS011;67851;51.354;7.744;2023-07-31T11:51:42;4.18;;;2.47;;
78555;SDS011;67851;51.354;7.744;2023-07-31T11:54:23;4.28;;;2.88;;
78555;SDS011;67851;51.354;7.744;2023-07-31T11:57:25;4.57;;;2.70;;
78555;SDS011;67851;51.354;7.744;2023-07-31T11:59:53;3.25;;;2.40;;
78555;SDS011;67851;51.354;7.744;2023-07-31T12:02:36;4.20;;;2.38;;
78555;SDS011;67851;51.354;7.744;2023-07-31T12:05:44;3.13;;;2.35;;
78555;SDS011;67851;51.354;7.744;2023-07-31T12:09:06;6.35;;;3.03;;
78555;SDS011;67851;51.354;7.744;2023-07-31T12:11:43;2.67;;;2.30;;
78555;SDS011;67851;51.354;7.744;2023-07-31T12:14:20;2.78;;;1.95;;
78555;SDS011;67851;51.354;7.744;2023-07-31T12:16:52;2.92;;;2.17;;
78555;SDS011;67851;51.354;7.744;2023-07-31T12:19:18;5.65;;;1.92;;
78555;SDS011;67851;51.354;7.744;2023-07-31T12:21:44;4.47;;;2.20;;
78555;SDS011;67851;51.354;7.744;2023-07-31T12:24:09;2.35;;;1.95;;
78555;SDS011;67851;51.354;7.744;2023-07-31T12:26:35;2.30;;;2.00;;
78555;SDS011;67851;51.354;7.744;2023-07-31T12:29:05;3.67;;;3.03;;
78555;SDS011;67851;51.354;7.744;2023-07-31T12:31:34;3.88;;;2.80;;
78555;SDS011;67851;51.354;7.744;2023-07-31T12:33:59;4.63;;;2.50;;
78555;SDS011;67851;51.354;7.744;2023-07-31T12:36:26;3.33;;;2.60;;
78555;SDS011;67851;51.354;7.744;2023-07-31T12:38:53;6.13;;;2.83;;
78555;SDS011;67851;51.354;7.744;2023-07-31T12:41:20;4.40;;;2.58;;
78555;SDS011;67851;51.354;7.744;2023-07-31T12:43:46;6.18;;;3.00;;
78555;SDS011;67851;51.354;7.744;2023-07-31T12:46:14;9.88;;;2.85;;
78555;SDS011;67851;51.354;7.744;2023-07-31T12:48:41;3.88;;;2.28;;
78555;SDS011;67851;51.354;7.744;2023-07-31T12:51:07;7.30;;;3.15;;
78555;SDS011;67851;51.354;7.744;2023-07-31T12:53:37;4.93;;;3.15;;
78555;SDS011;67851;51.354;7.744;2023-07-31T12:56:10;3.97;;;2.47;;
78555;SDS011;67851;51.354;7.744;2023-07-31T12:58:38;4.80;;;2.90;;
78555;SDS011;67851;51.354;7.744;2023-07-31T13:01:34;4.25;;;2.25;;
78555;SDS011;67851;51.354;7.744;2023-07-31T13:04:49;4.47;;;2.75;;
78555;SDS011;67851;51.354;7.744;2023-07-31T13:08:36;4.30;;;2.58;;
78555;SDS011;67851;51.354;7.744;2023-07-31T13:11:18;5.15;;;2.33;;
78555;SDS011;67851;51.354;7.744;2023-07-31T13:13:47;5.88;;;2.50;;
78555;SDS011;67851;51.354;7.744;2023-07-31T13:16:12;2.88;;;1.77;;
78555;SDS011;67851;51.354;7.744;2023-07-31T13:18:38;4.80;;;2.10;;
78555;SDS011;67851;51.354;7.744;2023-07-31T13:21:03;4.07;;;2.47;;
78555;SDS011;67851;51.354;7.744;2023-07-31T13:23:29;4.25;;;2.08;;
78555;SDS011;67851;51.354;7.744;2023-07-31T13:25:56;3.25;;;2.17;;
78555;SDS011;67851;51.354;7.744;2023-07-31T13:28:21;4.95;;;2.63;;
78555;SDS011;67851;51.354;7.744;2023-07-31T13:30:48;5.35;;;2.10;;
78555;SDS011;67851;51.354;7.744;2023-07-31T13:33:14;8.65;;;2.30;;
78555;SDS011;67851;51.354;7.744;2023-07-31T13:35:41;4.35;;;2.35;;
78555;SDS011;67851;51.354;7.744;2023-07-31T13:38:07;2.25;;;1.83;;
78555;SDS011;67851;51.354;7.744;2023-07-31T13:40:32;3.42;;;1.88;;
78555;SDS011;67851;51.354;7.744;2023-07-31T13:42:57;2.78;;;1.25;;
78555;SDS011;67851;51.354;7.744;2023-07-31T13:45:23;1.90;;;1.63;;
78555;SDS011;67851;51.354;7.744;2023-07-31T13:47:49;3.05;;;1.60;;
78555;SDS011;67851;51.354;7.744;2023-07-31T13:50:17;2.65;;;1.83;;
78555;SDS011;67851;51.354;7.744;2023-07-31T13:52:49;6.68;;;1.35;;
78555;SDS011;67851;51.354;7.744;2023-07-31T13:58:15;4.78;;;1.60;;
78555;SDS011;67851;51.354;7.744;2023-07-31T14:00:48;4.30;;;2.10;;
78555;SDS011;67851;51.354;7.744;2023-07-31T14:03:14;2.65;;;1.55;;
78555;SDS011;67851;51.354;7.744;2023-07-31T14:05:40;4.25;;;1.92;;
78555;SDS011;67851;51.354;7.744;2023-07-31T14:08:06;5.78;;;2.00;;
78555;SDS011;67851;51.354;7.744;2023-07-31T14:10:33;3.80;;;2.25;;
78555;SDS011;67851;51.354;7.744;2023-07-31T14:13:00;3.85;;;2.42;;
78555;SDS011;67851;51.354;7.744;2023-07-31T14:15:26;3.90;;;2.83;;
78555;SDS011;67851;51.354;7.744;2023-07-31T14:17:52;3.47;;;2.80;;
78555;SDS011;67851;51.354;7.744;2023-07-31T14:20:17;4.63;;;2.72;;
78555;SDS011;67851;51.354;7.744;2023-07-31T14:22:44;5.18;;;2.83;;
78555;SDS011;67851;51.354;7.744;2023-07-31T14:25:09;3.65;;;2.78;;
78555;SDS011;67851;51.354;7.744;2023-07-31T14:27:35;4.25;;;2.42;;
78555;SDS011;67851;51.354;7.744;2023-07-31T14:30:03;5.82;;;2.42;;
78555;SDS011;67851;51.354;7.744;2023-07-31T14:32:29;4.32;;;2.60;;
78555;SDS011;67851;51.354;7.744;2023-07-31T14:34:54;4.25;;;2.63;;
78555;SDS011;67851;51.354;7.744;2023-07-31T14:37:21;14.80;;;2.85;;
78555;SDS011;67851;51.354;7.744;2023-07-31T14:39:47;5.40;;;2.40;;
78555;SDS011;67851;51.354;7.744;2023-07-31T14:42:12;3.97;;;2.45;;
78555;SDS011;67851;51.354;7.744;2023-07-31T14:44:38;4.22;;;2.15;;
78555;SDS011;67851;51.354;7.744;2023-07-31T14:47:04;4.78;;;2.60;;
78555;SDS011;67851;51.354;7.744;2023-07-31T14:49:29;3.97;;;2.70;;
78555;SDS011;67851;51.354;7.744;2023-07-31T14:51:55;3.75;;;2.20;;
78555;SDS011;67851;51.354;7.744;2023-07-31T14:54:21;8.25;;;2.90;;
78555;SDS011;67851;51.354;7.744;2023-07-31T14:56:47;2.50;;;1.90;;
78555;SDS011;67851;51.354;7.744;2023-07-31T14:59:13;6.22;;;2.40;;
78555;SDS011;67851;51.354;7.744;2023-07-31T15:01:39;3.80;;;2.22;;
78555;SDS011;67851;51.354;7.744;2023-07-31T15:04:05;2.95;;;2.00;;
78555;SDS011;67851;51.354;7.744;2023-07-31T15:06:31;2.90;;;2.05;;
78555;SDS011;67851;51.354;7.744;2023-07-31T15:08:56;2.70;;;2.22;;
78555;SDS011;67851;51.354;7.744;2023-07-31T15:11:23;4.80;;;2.45;;
78555;SDS011;67851;51.354;7.744;2023-07-31T15:13:49;5.45;;;2.30;;
78555;SDS011;67851;51.354;7.744;2023-07-31T15:16:16;7.85;;;2.53;;